createdAt,value
2022-08-20T00:02:10.313Z,14.82
2022-08-20T00:04:37.165Z,14.85
2022-08-20T00:07:06.472Z,14.84
2022-08-20T00:09:36.722Z,14.86
2022-08-20T00:12:05.553Z,14.84
2022-08-20T00:14:33.907Z,14.80
2022-08-20T00:17:01.752Z,14.76
2022-08-20T00:19:29.093Z,14.70
2022-08-20T00:21:56.474Z,14.65
2022-08-20T00:24:24.892Z,14.64
2022-08-20T00:26:51.975Z,14.62
2022-08-20T00:29:20.266Z,14.56
2022-08-20T00:31:47.310Z,14.45
2022-08-20T00:34:14.304Z,14.26
2022-08-20T00:36:41.076Z,14.35
2022-08-20T00:39:07.789Z,14.17
2022-08-20T00:41:34.445Z,14.27
2022-08-20T00:44:11.548Z,14.36
2022-08-20T00:46:39.744Z,14.43
2022-08-20T00:49:17.595Z,14.31
2022-08-20T00:51:53.280Z,14.17
2022-08-20T00:54:37.403Z,14.07
2022-08-20T00:57:24.761Z,14.01
2022-08-20T00:59:52.794Z,13.99
2022-08-20T01:02:23.025Z,14.01
2022-08-20T01:04:54.642Z,13.99
2022-08-20T01:07:32.161Z,13.95
2022-08-20T01:10:00.470Z,13.87
2022-08-20T01:12:29.692Z,13.85
2022-08-20T01:15:00.402Z,13.78
2022-08-20T01:17:29.866Z,13.79
2022-08-20T01:20:15.937Z,13.77
2022-08-20T01:23:04.152Z,13.77
2022-08-20T01:25:41.477Z,13.78
2022-08-20T01:28:09.836Z,13.68
2022-08-20T01:30:37.786Z,13.64
2022-08-20T01:33:06.003Z,13.66
2022-08-20T01:35:40.865Z,13.62
2022-08-20T01:38:08.566Z,13.65
2022-08-20T01:40:56.904Z,13.66
2022-08-20T01:43:24.191Z,13.70
2022-08-20T01:45:52.917Z,13.65
2022-08-20T01:48:20.631Z,13.68
2022-08-20T01:50:55.587Z,13.80
2022-08-20T01:53:30.189Z,13.82
2022-08-20T01:55:56.940Z,13.83
2022-08-20T01:58:23.618Z,13.93
2022-08-20T02:00:50.500Z,13.92
2022-08-20T02:03:17.203Z,13.92
2022-08-20T02:05:44.022Z,13.88
2022-08-20T02:08:10.717Z,13.86
2022-08-20T02:10:37.393Z,13.89
2022-08-20T02:13:05.704Z,13.82
2022-08-20T02:15:37.473Z,13.83
2022-08-20T02:18:10.520Z,13.79
2022-08-20T02:20:38.915Z,13.75
2022-08-20T02:23:07.720Z,13.62
2022-08-20T02:25:37.200Z,13.56
2022-08-20T02:28:08.202Z,13.56
2022-08-20T02:30:39.176Z,13.48
2022-08-20T02:33:09.760Z,13.45
2022-08-20T02:35:37.917Z,13.40
2022-08-20T02:38:04.998Z,13.41
2022-08-20T02:40:32.094Z,13.39
2022-08-20T02:43:00.330Z,13.35
2022-08-20T02:45:28.754Z,13.26
2022-08-20T02:47:57.109Z,13.14
2022-08-20T02:50:25.991Z,13.05
2022-08-20T02:52:52.884Z,13.08
2022-08-20T02:55:28.214Z,13.13
2022-08-20T02:57:59.057Z,13.17
2022-08-20T03:00:28.574Z,13.18
2022-08-20T03:02:55.494Z,13.24
2022-08-20T03:05:22.344Z,13.30
2022-08-20T03:07:56.387Z,13.37
2022-08-20T03:10:26.141Z,13.28
2022-08-20T03:12:53.050Z,13.31
2022-08-20T03:15:20.368Z,13.37
2022-08-20T03:17:48.324Z,13.11
2022-08-20T03:20:15.269Z,12.98
2022-08-20T03:22:42.480Z,13.16
2022-08-20T03:25:10.891Z,13.23
2022-08-20T03:27:37.783Z,13.31
2022-08-20T03:30:08.475Z,13.32
2022-08-20T03:32:35.729Z,13.17
2022-08-20T03:35:02.544Z,13.07
2022-08-20T03:37:34.873Z,12.93
2022-08-20T03:40:03.530Z,13.02
2022-08-20T03:42:31.185Z,13.06
2022-08-20T03:44:58.974Z,13.09
2022-08-20T03:47:27.023Z,13.06
2022-08-20T03:49:59.046Z,13.02
2022-08-20T03:52:28.558Z,12.97
2022-08-20T03:54:56.161Z,12.93
2022-08-20T03:57:23.469Z,12.87
2022-08-20T03:59:55.132Z,12.83
2022-08-20T04:02:25.648Z,12.76
2022-08-20T04:04:52.363Z,12.56
2022-08-20T04:07:27.449Z,12.47
2022-08-20T04:09:57.636Z,12.58
2022-08-20T04:12:25.192Z,12.61
2022-08-20T04:14:54.313Z,12.70
2022-08-20T04:17:21.054Z,12.63
2022-08-20T04:19:49.265Z,12.71
2022-08-20T04:22:15.942Z,12.66
2022-08-20T04:24:43.653Z,12.67
2022-08-20T04:27:10.913Z,12.69
2022-08-20T04:29:37.711Z,12.65
2022-08-20T04:32:06.083Z,12.64
2022-08-20T04:34:34.169Z,12.67
2022-08-20T04:37:00.882Z,12.65
2022-08-20T04:39:27.546Z,12.63
2022-08-20T04:41:55.441Z,12.52
2022-08-20T04:44:22.746Z,12.71
2022-08-20T04:46:49.496Z,12.85
2022-08-20T04:49:16.191Z,12.98
2022-08-20T04:51:42.920Z,13.07
2022-08-20T04:54:09.616Z,12.81
2022-08-20T04:56:39.643Z,12.54
2022-08-20T04:59:07.420Z,12.31
2022-08-20T05:01:37.827Z,12.31
2022-08-20T05:04:04.603Z,12.87
2022-08-20T05:06:31.890Z,13.16
2022-08-20T05:09:00.511Z,13.20
2022-08-20T05:11:33.669Z,13.32
2022-08-20T05:14:05.497Z,13.42
2022-08-20T05:16:37.638Z,13.47
2022-08-20T05:19:04.528Z,13.65
2022-08-20T05:21:31.181Z,13.87
2022-08-20T05:23:57.796Z,13.95
2022-08-20T05:26:26.427Z,13.67
2022-08-20T05:28:58.637Z,13.51
2022-08-20T05:31:31.924Z,13.69
2022-08-20T05:34:12.133Z,14.09
2022-08-20T05:36:41.300Z,14.47
2022-08-20T05:39:10.037Z,15.13
2022-08-20T05:41:38.373Z,15.60
2022-08-20T05:44:09.862Z,15.71
2022-08-20T05:46:40.853Z,16.27
2022-08-20T05:49:09.164Z,16.12
2022-08-20T05:51:36.976Z,16.30
2022-08-20T05:54:05.324Z,15.75
2022-08-20T05:56:32.512Z,15.60
2022-08-20T05:59:04.413Z,15.45
2022-08-20T06:01:32.366Z,15.56
2022-08-20T06:04:17.619Z,16.03
2022-08-20T06:06:47.114Z,16.26
2022-08-20T06:09:31.820Z,16.30
2022-08-20T06:12:05.912Z,16.42
2022-08-20T06:14:33.369Z,17.13
2022-08-20T06:17:17.630Z,17.33
2022-08-20T06:19:46.091Z,16.85
2022-08-20T06:22:18.526Z,16.68
2022-08-20T06:24:51.569Z,16.77
2022-08-20T06:27:18.358Z,16.65
2022-08-20T06:29:45.780Z,16.99
2022-08-20T06:32:12.586Z,17.22
2022-08-20T06:34:50.936Z,17.41
2022-08-20T06:37:27.413Z,17.30
2022-08-20T06:40:03.520Z,17.36
2022-08-20T06:42:30.520Z,17.19
2022-08-20T06:44:59.521Z,17.29
2022-08-20T06:47:26.258Z,16.94
2022-08-20T06:49:52.961Z,16.89
2022-08-20T06:52:19.651Z,16.96
2022-08-20T06:54:56.703Z,16.62
2022-08-20T06:57:23.384Z,16.49
2022-08-20T06:59:54.072Z,16.72
2022-08-20T07:02:21.209Z,16.81
2022-08-20T07:04:56.230Z,16.75
2022-08-20T07:07:22.912Z,16.95
2022-08-20T07:09:49.637Z,16.82
2022-08-20T07:12:16.345Z,16.65
2022-08-20T07:14:43.040Z,16.50
2022-08-20T07:17:12.267Z,16.48
2022-08-20T07:19:39.182Z,16.64
2022-08-20T07:22:06.737Z,17.11
2022-08-20T07:24:34.963Z,17.39
2022-08-20T07:27:04.792Z,17.29
2022-08-20T07:29:51.476Z,17.22
2022-08-20T07:32:39.615Z,17.15
2022-08-20T07:35:11.234Z,16.55
2022-08-20T07:37:43.496Z,17.24
2022-08-20T07:40:21.279Z,17.94
2022-08-20T07:42:50.736Z,18.53
2022-08-20T07:45:18.794Z,18.62
2022-08-20T07:47:48.088Z,18.84
2022-08-20T07:50:19.092Z,20.28
2022-08-20T07:52:46.564Z,21.78
2022-08-20T07:55:16.394Z,21.95
2022-08-20T07:57:45.652Z,24.81
2022-08-20T08:00:13.704Z,27.00
2022-08-20T08:02:40.488Z,29.81
2022-08-20T08:05:07.761Z,30.72
2022-08-20T08:07:35.520Z,29.27
2022-08-20T08:10:07.363Z,26.64
2022-08-20T08:12:40.944Z,24.81
2022-08-20T08:15:12.584Z,24.29
2022-08-20T08:17:39.292Z,23.82
2022-08-20T08:20:08.460Z,23.50
2022-08-20T08:22:35.176Z,23.24
2022-08-20T08:25:02.721Z,22.70
2022-08-20T08:27:33.272Z,22.72
2022-08-20T08:30:01.128Z,21.84
2022-08-20T08:32:28.555Z,20.43
2022-08-20T08:34:55.282Z,20.66
2022-08-20T08:37:21.983Z,20.26
2022-08-20T08:39:49.104Z,20.40
2022-08-20T08:42:25.952Z,20.58
2022-08-20T08:44:54.489Z,19.97
2022-08-20T08:47:35.962Z,19.97
2022-08-20T08:50:05.646Z,20.39
2022-08-20T08:52:36.985Z,20.42
2022-08-20T08:55:07.014Z,20.63
2022-08-20T08:57:34.269Z,20.17
2022-08-20T09:00:15.618Z,20.06
2022-08-20T09:03:00.060Z,20.00
2022-08-20T09:05:37.325Z,20.05
2022-08-20T09:08:16.685Z,20.08
2022-08-20T09:10:44.973Z,20.03
2022-08-20T09:13:12.373Z,19.98
2022-08-20T09:15:39.154Z,19.82
2022-08-20T09:18:05.825Z,19.44
2022-08-20T09:20:32.582Z,18.74
2022-08-20T09:22:59.287Z,18.66
2022-08-20T09:25:26.088Z,18.70
2022-08-20T09:27:52.843Z,18.80
2022-08-20T09:30:19.795Z,18.69
2022-08-20T09:32:47.212Z,18.79
2022-08-20T09:35:13.861Z,18.55
2022-08-20T09:37:40.587Z,18.16
2022-08-20T09:40:08.889Z,18.41
2022-08-20T09:42:41.403Z,18.06
2022-08-20T09:45:11.069Z,19.00
2022-08-20T09:47:43.851Z,18.84
2022-08-20T09:50:21.964Z,18.30
2022-08-20T09:52:53.143Z,18.33
2022-08-20T09:55:40.686Z,18.19
2022-08-20T09:58:31.015Z,18.17
2022-08-20T10:00:58.800Z,17.28
2022-08-20T10:03:25.492Z,17.37
2022-08-20T10:05:52.217Z,16.81
2022-08-20T10:08:18.905Z,16.72
2022-08-20T10:10:45.581Z,16.77
2022-08-20T10:13:13.251Z,16.68
2022-08-20T10:15:42.460Z,16.60
2022-08-20T10:18:09.495Z,16.75
2022-08-20T10:20:39.294Z,16.36
2022-08-20T10:23:06.145Z,16.67
2022-08-20T10:25:32.952Z,16.94
2022-08-20T10:27:59.692Z,16.82
2022-08-20T10:30:26.638Z,16.87
2022-08-20T10:32:53.342Z,17.17
2022-08-20T10:35:20.212Z,17.03
2022-08-20T10:37:46.907Z,17.44
2022-08-20T10:40:15.831Z,17.77
2022-08-20T10:42:45.828Z,17.85
2022-08-20T10:45:15.274Z,18.01
2022-08-20T10:47:43.160Z,18.33
2022-08-20T10:50:13.633Z,18.42
2022-08-20T10:52:40.527Z,18.79
2022-08-20T10:55:07.981Z,18.83
2022-08-20T10:57:34.789Z,19.12
2022-08-20T11:00:01.913Z,18.84
2022-08-20T11:02:29.942Z,19.30
2022-08-20T11:04:56.910Z,19.13
2022-08-20T11:07:55.565Z,20.05
2022-08-20T11:10:26.207Z,19.45
2022-08-20T11:12:52.945Z,19.87
2022-08-20T11:15:19.621Z,19.48
2022-08-20T11:17:46.420Z,20.28
2022-08-20T11:20:15.849Z,21.08
2022-08-20T11:22:42.566Z,20.18
2022-08-20T11:25:10.126Z,19.74
2022-08-20T11:27:39.632Z,20.80
2022-08-20T11:30:11.121Z,19.77
2022-08-20T11:32:37.973Z,19.30
2022-08-20T11:35:19.192Z,19.21
2022-08-20T11:37:53.973Z,20.14
2022-08-20T11:40:21.378Z,20.67
2022-08-20T11:43:10.948Z,20.54
2022-08-20T11:45:37.430Z,20.86
2022-08-20T11:48:05.572Z,20.54
2022-08-20T11:50:32.631Z,20.00
2022-08-20T11:53:01.205Z,20.64
2022-08-20T11:55:30.352Z,20.99
2022-08-20T11:58:00.416Z,21.46
2022-08-20T12:00:31.720Z,21.90
2022-08-20T12:03:05.107Z,21.63
2022-08-20T12:05:33.153Z,20.87
2022-08-20T12:08:04.087Z,20.46
2022-08-20T12:10:31.457Z,19.48
2022-08-20T12:12:58.248Z,19.84
2022-08-20T12:15:26.807Z,19.53
2022-08-20T12:17:54.823Z,19.52
2022-08-20T12:20:23.586Z,19.20
2022-08-20T12:22:50.842Z,19.10
2022-08-20T12:25:17.783Z,18.79
2022-08-20T12:27:46.241Z,18.84
2022-08-20T12:30:20.453Z,19.19
2022-08-20T12:32:47.645Z,18.38
2022-08-20T12:35:16.097Z,18.61
2022-08-20T12:37:43.910Z,18.31
2022-08-20T12:40:14.780Z,17.92
2022-08-20T12:42:41.722Z,18.71
2022-08-20T12:45:09.212Z,18.93
2022-08-20T12:47:39.525Z,18.12
2022-08-20T12:50:10.071Z,18.19
2022-08-20T12:52:37.327Z,18.27
2022-08-20T12:55:06.748Z,18.30
2022-08-20T12:57:36.631Z,18.47
2022-08-20T13:00:34.373Z,19.05
2022-08-20T13:03:03.646Z,19.06
2022-08-20T13:05:31.706Z,19.20
2022-08-20T13:07:58.725Z,18.25
2022-08-20T13:10:33.381Z,18.80
2022-08-20T13:13:04.211Z,19.47
2022-08-20T13:15:32.279Z,20.35
2022-08-20T13:18:01.537Z,20.38
2022-08-20T13:20:34.126Z,19.77
2022-08-20T13:23:06.274Z,21.14
2022-08-20T13:25:33.794Z,21.45
2022-08-20T13:28:04.481Z,20.52
2022-08-20T13:30:32.712Z,22.05
2022-08-20T13:32:59.556Z,22.45
2022-08-20T13:35:26.687Z,22.17
2022-08-20T13:37:53.538Z,22.68
2022-08-20T13:40:20.681Z,22.42
2022-08-20T13:42:47.571Z,22.56
2022-08-20T13:45:14.490Z,22.92
2022-08-20T13:47:42.580Z,23.45
2022-08-20T13:50:20.492Z,22.91
2022-08-20T13:52:47.589Z,23.33
2022-08-20T13:55:18.827Z,21.76
2022-08-20T13:57:46.183Z,21.91
2022-08-20T14:00:17.236Z,20.94
2022-08-20T14:02:44.665Z,20.07
2022-08-20T14:05:12.087Z,19.77
2022-08-20T14:07:44.598Z,19.03
2022-08-20T14:10:16.877Z,19.43
2022-08-20T14:12:43.953Z,18.44
2022-08-20T14:15:11.773Z,18.42
2022-08-20T14:17:42.049Z,19.71
2022-08-20T14:20:14.072Z,19.23
2022-08-20T14:22:42.669Z,19.90
2022-08-20T14:25:11.862Z,19.84
2022-08-20T14:27:38.954Z,20.35
2022-08-20T14:30:09.211Z,20.63
2022-08-20T14:32:35.961Z,21.26
2022-08-20T14:35:02.949Z,20.74
2022-08-20T14:37:33.015Z,20.91
2022-08-20T14:40:01.803Z,21.12
2022-08-20T14:42:29.738Z,21.48
2022-08-20T14:44:57.374Z,21.83
2022-08-20T14:47:30.169Z,21.37
2022-08-20T14:50:04.606Z,21.80
2022-08-20T14:52:32.948Z,21.45
2022-08-20T14:54:59.661Z,21.54
2022-08-20T14:57:26.343Z,21.14
2022-08-20T14:59:53.652Z,22.33
2022-08-20T15:02:20.499Z,21.34
2022-08-20T15:04:54.080Z,22.02
2022-08-20T15:07:27.330Z,20.88
2022-08-20T15:09:55.316Z,21.33
2022-08-20T15:12:22.879Z,20.85
2022-08-20T15:14:50.480Z,20.34
2022-08-20T15:17:22.981Z,19.99
2022-08-20T15:19:49.988Z,20.49
2022-08-20T15:22:18.066Z,21.20
2022-08-20T15:24:44.919Z,21.37
2022-08-20T15:27:23.040Z,21.00
2022-08-20T15:29:51.409Z,21.46
2022-08-20T15:32:18.903Z,21.43
2022-08-20T15:34:46.817Z,21.22
2022-08-20T15:37:17.864Z,21.28
2022-08-20T15:39:45.101Z,21.45
2022-08-20T15:42:13.092Z,21.19
2022-08-20T15:44:40.789Z,21.09
2022-08-20T15:47:16.728Z,21.21
2022-08-20T15:49:44.614Z,21.49
2022-08-20T15:52:11.868Z,22.17
2022-08-20T15:54:39.467Z,22.48
2022-08-20T15:57:06.229Z,22.71
2022-08-20T16:00:00.261Z,22.13
2022-08-20T16:03:11.780Z,22.27
2022-08-20T16:05:56.195Z,22.21
2022-08-20T16:08:58.221Z,22.12
2022-08-20T16:11:44.448Z,21.99
2022-08-20T16:14:16.112Z,22.03
2022-08-20T16:16:56.633Z,22.06
2022-08-20T16:19:34.958Z,21.69
2022-08-20T16:22:04.715Z,21.44
2022-08-20T16:24:32.362Z,21.44
2022-08-20T16:27:17.221Z,21.45
2022-08-20T16:29:58.968Z,21.35
2022-08-20T16:32:25.751Z,21.21
2022-08-20T16:35:29.548Z,20.87
2022-08-20T16:38:20.995Z,20.97
2022-08-20T16:41:02.097Z,20.87
2022-08-20T16:43:36.791Z,20.89
2022-08-20T16:46:06.393Z,20.79
2022-08-20T16:48:41.432Z,21.03
2022-08-20T16:51:17.823Z,21.00
2022-08-20T16:53:44.800Z,20.84
2022-08-20T16:56:11.859Z,20.59
2022-08-20T16:58:39.061Z,20.27
2022-08-20T17:01:11.994Z,20.52
2022-08-20T17:03:47.742Z,20.37
2022-08-20T17:06:25.761Z,20.38
2022-08-20T17:08:53.079Z,20.40
2022-08-20T17:11:33.134Z,20.42
2022-08-20T17:14:13.473Z,20.25
2022-08-20T17:16:45.590Z,19.90
2022-08-20T17:19:33.813Z,19.66
2022-08-20T17:22:14.683Z,19.56
2022-08-20T17:24:41.698Z,19.49
2022-08-20T17:27:15.037Z,19.35
2022-08-20T17:30:04.861Z,19.28
2022-08-20T17:32:32.102Z,19.07
2022-08-20T17:35:02.138Z,18.76
2022-08-20T17:37:40.819Z,18.59
2022-08-20T17:40:17.292Z,18.49
2022-08-20T17:42:47.209Z,18.44
2022-08-20T17:45:24.390Z,18.25
2022-08-20T17:47:52.813Z,18.16
2022-08-20T17:50:23.624Z,18.06
2022-08-20T17:52:53.284Z,17.88
2022-08-20T17:55:20.874Z,17.80
2022-08-20T17:57:55.967Z,17.75
2022-08-20T18:00:26.192Z,17.54
2022-08-20T18:02:57.613Z,17.46
2022-08-20T18:05:24.912Z,17.45
2022-08-20T18:08:16.957Z,17.40
2022-08-20T18:11:03.725Z,17.32
2022-08-20T18:13:33.659Z,17.22
2022-08-20T18:16:02.159Z,17.20
2022-08-20T18:19:10.511Z,17.20
2022-08-20T18:22:06.356Z,17.03
2022-08-20T18:25:08.593Z,16.87
2022-08-20T18:27:46.452Z,16.74
2022-08-20T18:30:22.203Z,16.66
2022-08-20T18:32:59.451Z,16.47
2022-08-20T18:35:34.330Z,16.22
2022-08-20T18:38:27.709Z,16.31
2022-08-20T18:41:06.215Z,16.16
2022-08-20T18:43:32.989Z,16.19
2022-08-20T18:46:23.495Z,16.05
2022-08-20T18:48:57.036Z,16.10
2022-08-20T18:51:50.382Z,16.05
2022-08-20T18:54:25.193Z,16.02
2022-08-20T18:57:24.938Z,15.61
2022-08-20T19:00:01.876Z,15.53
2022-08-20T19:02:33.465Z,15.41
2022-08-20T19:05:04.945Z,15.40
2022-08-20T19:07:48.445Z,15.51
2022-08-20T19:10:52.616Z,15.49
2022-08-20T19:13:40.587Z,15.47
2022-08-20T19:16:18.263Z,15.46
2022-08-20T19:18:52.843Z,15.47
2022-08-20T19:21:29.735Z,15.47
2022-08-20T19:24:01.246Z,15.42
2022-08-20T19:26:31.464Z,15.31
2022-08-20T19:29:02.231Z,15.26
2022-08-20T19:31:33.104Z,15.22
2022-08-20T19:34:20.184Z,15.16
2022-08-20T19:37:09.178Z,15.15
2022-08-20T19:39:50.911Z,15.03
2022-08-20T19:42:23.011Z,15.05
2022-08-20T19:45:01.321Z,15.05
2022-08-20T19:47:34.008Z,15.01
2022-08-20T19:50:11.234Z,14.88
2022-08-20T19:52:56.286Z,14.92
2022-08-20T19:55:28.046Z,14.93
2022-08-20T19:58:00.710Z,14.93
2022-08-20T20:00:30.654Z,14.89
2022-08-20T20:03:08.703Z,14.84
2022-08-20T20:05:35.523Z,14.74
2022-08-20T20:08:04.057Z,14.47
2022-08-20T20:10:34.980Z,14.52
2022-08-20T20:13:10.296Z,14.55
2022-08-20T20:15:38.058Z,14.53
2022-08-20T20:18:06.095Z,14.50
2022-08-20T20:20:38.482Z,14.51
2022-08-20T20:23:45.555Z,14.40
2022-08-20T20:26:17.557Z,14.31
2022-08-20T20:28:49.604Z,14.23
2022-08-20T20:31:29.799Z,14.14
2022-08-20T20:34:04.417Z,14.03
2022-08-20T20:36:40.828Z,14.03
2022-08-20T20:39:30.175Z,14.03
2022-08-20T20:41:59.893Z,14.00
2022-08-20T20:44:36.906Z,13.99
2022-08-20T20:47:08.229Z,14.01
2022-08-20T20:50:25.231Z,13.96
2022-08-20T20:52:54.630Z,13.93
2022-08-20T20:55:22.861Z,13.82
2022-08-20T20:57:50.972Z,13.76
2022-08-20T21:00:19.917Z,13.66
2022-08-20T21:02:47.035Z,13.63
2022-08-20T21:05:16.296Z,13.55
2022-08-20T21:07:57.108Z,13.58
2022-08-20T21:10:27.809Z,13.59
2022-08-20T21:12:54.901Z,13.55
2022-08-20T21:15:23.690Z,13.49
2022-08-20T21:17:51.364Z,13.41
2022-08-20T21:20:19.200Z,13.34
2022-08-20T21:22:45.877Z,13.42
2022-08-20T21:25:13.365Z,13.32
2022-08-20T21:27:44.394Z,13.25
2022-08-20T21:30:11.761Z,13.27
2022-08-20T21:32:38.412Z,13.26
2022-08-20T21:35:05.623Z,13.29
2022-08-20T21:37:32.518Z,13.30
2022-08-20T21:39:59.277Z,13.30
2022-08-20T21:42:29.624Z,13.15
2022-08-20T21:44:57.828Z,13.09
2022-08-20T21:47:25.074Z,13.13
2022-08-20T21:49:52.478Z,13.13
2022-08-20T21:52:19.210Z,13.08
2022-08-20T21:54:45.947Z,13.12
2022-08-20T21:57:33.221Z,13.12
2022-08-20T22:00:02.256Z,13.16
2022-08-20T22:02:30.008Z,13.14
2022-08-20T22:04:56.682Z,13.11
2022-08-20T22:07:23.513Z,13.15
2022-08-20T22:09:50.136Z,13.06
2022-08-20T22:12:22.664Z,13.06
2022-08-20T22:14:49.533Z,13.14
2022-08-20T22:17:16.522Z,13.24
2022-08-20T22:19:43.425Z,13.19
2022-08-20T22:22:11.667Z,13.09
2022-08-20T22:24:39.049Z,13.15
2022-08-20T22:27:06.077Z,13.25
2022-08-20T22:29:32.846Z,13.26
2022-08-20T22:32:00.379Z,13.10
2022-08-20T22:34:31.255Z,12.88
2022-08-20T22:36:59.503Z,12.82
2022-08-20T22:39:26.706Z,12.86
2022-08-20T22:41:53.515Z,12.79
2022-08-20T22:44:20.632Z,12.82
2022-08-20T22:46:51.541Z,12.73
2022-08-20T22:49:23.776Z,12.57
2022-08-20T22:51:50.655Z,12.74
2022-08-20T22:54:22.220Z,12.61
2022-08-20T22:56:49.712Z,12.64
2022-08-20T22:59:18.164Z,12.62
2022-08-20T23:01:46.300Z,12.51
2022-08-20T23:04:22.291Z,12.55
2022-08-20T23:06:49.349Z,12.55
2022-08-20T23:09:21.114Z,12.63
2022-08-20T23:11:48.395Z,12.47
2022-08-20T23:14:15.456Z,12.50
2022-08-20T23:16:45.164Z,12.65
2022-08-20T23:19:21.388Z,12.70
2022-08-20T23:21:52.462Z,12.83
2022-08-20T23:24:19.771Z,12.79
2022-08-20T23:26:52.766Z,12.75
2022-08-20T23:29:22.615Z,12.50
2022-08-20T23:31:54.710Z,12.59
2022-08-20T23:34:21.565Z,12.69
2022-08-20T23:36:48.544Z,12.74
2022-08-20T23:39:15.393Z,12.66
2022-08-20T23:41:47.580Z,12.84
2022-08-20T23:44:25.854Z,12.62
2022-08-20T23:47:00.608Z,12.75
2022-08-20T23:49:28.618Z,12.68
2022-08-20T23:51:55.796Z,12.77
2022-08-20T23:54:22.570Z,12.69
2022-08-20T23:56:49.564Z,12.77
2022-08-20T23:59:16.491Z,12.84
